Time;durP1;ratioP1;P1;durP2;ratioP2;P2;SDS_P1;SDS_P2;PMS_P1;PMS_P2;Temp;Humidity;BMP_temperature;BMP_pressure;BME280_temperature;BME280_humidity;BME280_pressure;Samples;Min_cycle;Max_cycle;Signal;HPM_P1;HPM_P2
2021/11/20 00:01:24;;;;;;;46.83;18.38;;;;;;;3.06;100.00;97043.16;4988477;28;20442;-43
2021/11/20 00:03:51;;;;;;;49.92;19.10;;;;;;;3.10;100.00;97049.59;4991485;28;20050;-44
2021/11/20 00:06:25;;;;;;;69.18;19.50;;;;;;;3.09;100.00;97054.16;4991697;28;20062;-44
2021/11/20 00:08:53;;;;;;;47.90;19.35;;;;;;;3.12;100.00;97048.28;4987534;28;20507;-46
2021/11/20 00:11:23;;;;;;;51.78;19.73;;;;;;;3.11;100.00;97049.31;4974082;28;20129;-46
2021/11/20 00:13:51;;;;;;;49.67;20.73;;;;;;;2.99;100.00;97054.03;4989472;28;20112;-47
2021/11/20 00:16:23;;;;;;;73.30;19.83;;;;;;;3.23;100.00;97044.59;4990860;28;20066;-44
2021/11/20 00:18:51;;;;;;;60.95;19.92;;;;;;;3.27;100.00;97039.53;4987514;28;20070;-44
2021/11/20 00:21:31;;;;;;;42.17;19.00;;;;;;;3.39;100.00;97044.72;4989474;28;20042;-45
2021/11/20 00:24:26;;;;;;;46.72;19.13;;;;;;;3.24;100.00;97042.72;4984905;28;20125;-46
2021/11/20 00:26:55;;;;;;;48.33;19.15;;;;;;;3.34;100.00;97044.66;4968768;28;20148;-47
2021/11/20 00:29:27;;;;;;;46.08;19.60;;;;;;;3.23;100.00;97043.81;4970496;28;20129;-44
2021/11/20 00:31:58;;;;;;;49.38;18.48;;;;;;;3.26;100.00;97037.94;4973231;28;20047;-46
2021/11/20 00:34:30;;;;;;;49.92;19.08;;;;;;;3.20;100.00;97036.28;4974538;28;20054;-44
2021/11/20 00:36:58;;;;;;;52.25;17.45;;;;;;;3.02;100.00;97035.66;4993971;28;20375;-47
2021/11/20 00:39:29;;;;;;;42.75;18.15;;;;;;;3.17;100.00;97028.78;4993694;28;20065;-49
2021/11/20 00:41:57;;;;;;;51.03;18.25;;;;;;;3.23;100.00;97027.75;4975704;28;20046;-49
2021/11/20 00:44:25;;;;;;;49.10;18.00;;;;;;;3.32;100.00;97031.56;4985119;28;20038;-49
2021/11/20 00:46:53;;;;;;;46.53;18.60;;;;;;;3.47;100.00;97031.63;4994094;28;20133;-50
2021/11/20 00:49:21;;;;;;;45.10;18.00;;;;;;;3.28;100.00;97030.44;4992597;28;20464;-49
2021/11/20 00:51:50;;;;;;;55.10;17.98;;;;;;;3.10;100.00;97034.34;4988810;28;20035;-49
2021/11/20 00:54:18;;;;;;;46.13;17.38;;;;;;;3.22;100.00;97037.66;4973585;28;20137;-49
2021/11/20 00:56:46;;;;;;;53.70;18.08;;;;;;;3.09;100.00;97042.63;4989933;28;20105;-48
2021/11/20 00:59:13;;;;;;;39.97;17.60;;;;;;;3.14;100.00;97037.31;4993169;28;20058;-47
2021/11/20 01:02:01;;;;;;;42.75;17.40;;;;;;;3.34;100.00;97042.78;4988597;28;20122;-51
2021/11/20 01:04:31;;;;;;;46.45;18.00;;;;;;;3.42;99.83;97036.97;4991825;28;20129;-48
2021/11/20 01:06:59;;;;;;;43.10;17.90;;;;;;;3.48;99.68;97038.59;4992645;28;20070;-49
2021/11/20 01:09:30;;;;;;;45.92;18.73;;;;;;;3.31;100.00;97035.28;4992988;28;20101;-49
2021/11/20 01:12:20;;;;;;;41.03;18.13;;;;;;;3.22;100.00;97039.53;4991627;28;20035;-50
2021/11/20 01:14:50;;;;;;;45.55;17.30;;;;;;;3.04;100.00;97036.19;4992989;28;20039;-50
2021/11/20 01:17:21;;;;;;;44.38;16.30;;;;;;;2.98;100.00;97037.19;4992840;28;20050;-50
2021/11/20 01:19:48;;;;;;;40.15;16.35;;;;;;;3.00;100.00;97027.06;4990015;28;20129;-49
2021/11/20 01:22:24;;;;;;;35.08;14.77;;;;;;;3.18;100.00;97025.03;4973081;28;20404;-47
2021/11/20 01:25:20;;;;;;;34.05;15.68;;;;;;;3.25;100.00;97018.41;4988966;28;20042;-48
2021/11/20 01:28:03;;;;;;;39.97;16.00;;;;;;;3.59;99.65;97014.56;4992904;28;20053;-50
2021/11/20 01:30:49;;;;;;;44.08;16.35;;;;;;;3.19;100.00;97015.97;4979795;28;20038;-48
2021/11/20 01:33:24;;;;;;;41.28;17.02;;;;;;;3.31;100.00;97013.88;4990115;28;20046;-48
2021/11/20 01:35:53;;;;;;;40.38;16.25;;;;;;;3.29;100.00;97002.66;4988909;28;20046;-50
2021/11/20 01:38:20;;;;;;;36.05;15.25;;;;;;;3.31;100.00;97013.88;4976687;28;20453;-47
2021/11/20 01:40:50;;;;;;;37.53;16.00;;;;;;;3.26;100.00;97011.19;4991848;28;20148;-47
2021/11/20 01:43:28;;;;;;;39.75;15.63;;;;;;;3.36;100.00;97000.53;4989833;28;20045;-49
2021/11/20 01:46:04;;;;;;;37.50;14.70;;;;;;;3.31;100.00;96997.84;4992269;28;20523;-49
2021/11/20 01:48:40;;;;;;;34.00;14.15;;;;;;;3.52;99.56;96993.41;4991708;28;20105;-48
2021/11/20 01:51:14;;;;;;;30.88;14.20;;;;;;;3.46;99.62;96984.53;4991194;28;20121;-49
2021/11/20 01:54:00;;;;;;;35.50;14.63;;;;;;;3.45;99.64;96988.28;4987301;28;20058;-51
2021/11/20 01:56:38;;;;;;;33.33;14.38;;;;;;;3.42;100.00;96983.47;4992126;28;20054;-50
2021/11/20 01:59:30;;;;;;;32.25;14.32;;;;;;;3.41;100.00;96981.03;4990776;28;20046;-49
2021/11/20 02:02:25;;;;;;;34.72;14.70;;;;;;;3.39;99.46;96970.59;4990400;28;20571;-50
2021/11/20 02:05:02;;;;;;;;;;;;;;;3.32;100.00;96975.38;4992373;28;20112;-46
2021/11/20 02:07:58;;;;;;;31.77;13.52;;;;;;;3.28;100.00;96976.94;4990267;28;19929;-46
2021/11/20 02:10:39;;;;;;;33.35;12.88;;;;;;;3.21;100.00;96971.03;4991896;28;20641;-47
2021/11/20 02:13:11;;;;;;;36.28;14.60;;;;;;;3.28;100.00;96967.09;4989669;28;20125;-48
2021/11/20 02:15:45;;;;;;;35.22;14.02;;;;;;;3.25;100.00;96964.94;4991722;28;20042;-46
2021/11/20 02:18:18;;;;;;;33.75;13.82;;;;;;;3.20;100.00;96961.41;4966067;28;20054;-45
2021/11/20 02:20:47;;;;;;;34.00;13.82;;;;;;;3.19;100.00;96959.81;4976379;28;20125;-46
2021/11/20 02:23:34;;;;;;;34.88;14.52;;;;;;;3.20;100.00;96954.19;4980977;28;20050;-44
2021/11/20 02:26:03;;;;;;;35.05;15.00;;;;;;;3.38;100.00;96960.97;4979071;28;20046;-46
2021/11/20 02:28:53;;;;;;;35.75;16.17;;;;;;;3.35;100.00;96949.97;4991383;28;20122;-49
2021/11/20 02:32:02;;;;;;;34.13;14.80;;;;;;;3.19;100.00;96946.44;4989045;28;20061;-45
2021/11/20 02:34:53;;;;;;;40.17;14.85;;;;;;;3.18;100.00;96937.59;4968228;28;20070;-45
2021/11/20 02:37:24;;;;;;;34.20;14.30;;;;;;;3.18;100.00;96936.78;4987640;28;20034;-47
2021/11/20 02:39:50;;;;;;;33.25;14.50;;;;;;;3.30;100.00;96934.72;4992812;28;20053;-44
2021/11/20 02:42:21;;;;;;;28.42;13.35;;;;;;;3.29;100.00;96930.44;4985226;28;20077;-46
2021/11/20 02:45:17;;;;;;;32.50;13.35;;;;;;;3.13;100.00;96934.09;4992397;28;20424;-44
2021/11/20 02:47:44;;;;;;;32.33;12.52;;;;;;;3.11;100.00;96925.53;4990059;28;20053;-45
2021/11/20 02:50:12;;;;;;;32.63;13.60;;;;;;;3.23;100.00;96929.59;4988628;28;20583;-43
2021/11/20 02:52:38;;;;;;;35.13;12.73;;;;;;;3.11;100.00;96918.31;4985598;28;20081;-43
2021/11/20 02:55:08;;;;;;;34.22;13.10;;;;;;;3.01;100.00;96913.72;4986304;28;20058;-43
2021/11/20 02:57:39;;;;;;;26.83;11.70;;;;;;;3.05;100.00;96914.00;4989888;28;20058;-44
2021/11/20 03:00:12;;;;;;;30.17;13.25;;;;;;;3.07;100.00;96917.22;4992282;28;20766;-46
2021/11/20 03:02:42;;;;;;;27.20;11.63;;;;;;;3.02;100.00;96912.66;4984848;28;20062;-46
2021/11/20 03:05:11;;;;;;;25.67;11.27;;;;;;;3.12;100.00;96905.72;4986218;28;20038;-45
2021/11/20 03:07:39;;;;;;;26.90;10.95;;;;;;;3.13;100.00;96912.72;4991033;28;20400;-44
2021/11/20 03:10:09;;;;;;;28.70;11.65;;;;;;;3.17;100.00;96903.91;4990841;28;20050;-43
2021/11/20 03:12:37;;;;;;;22.38;10.43;;;;;;;3.20;100.00;96906.06;4988647;28;20064;-43
2021/11/20 03:15:06;;;;;;;23.27;11.18;;;;;;;3.35;99.89;96901.81;4990754;28;20093;-45
2021/11/20 03:17:45;;;;;;;23.30;10.23;;;;;;;3.36;99.33;96901.56;4989916;28;20071;-44
2021/11/20 03:20:18;;;;;;;23.85;10.45;;;;;;;3.37;99.46;96897.81;4991475;28;20408;-45
2021/11/20 03:22:56;;;;;;;22.27;9.77;;;;;;;3.50;99.17;96891.19;4988506;28;20038;-46
2021/11/20 03:25:24;;;;;;;20.77;9.73;;;;;;;3.40;99.51;96894.63;4973815;28;20472;-44
2021/11/20 03:27:54;;;;;;;21.75;10.35;;;;;;;3.40;99.81;96889.28;4987155;28;20101;-44
2021/11/20 03:30:21;;;;;;;19.17;9.65;;;;;;;3.46;99.54;96892.78;4990725;28;20093;-47
2021/11/20 03:32:48;;;;;;;20.25;9.65;;;;;;;3.41;99.48;96893.56;4970085;28;20035;-43
2021/11/20 03:35:20;;;;;;;22.50;10.45;;;;;;;3.81;98.89;96894.75;4978881;28;20412;-45
2021/11/20 03:37:52;;;;;;;22.77;10.10;;;;;;;3.83;98.17;96889.91;4990316;28;20046;-44
2021/11/20 03:40:23;;;;;;;23.80;10.77;;;;;;;3.79;98.10;96883.47;4989545;28;20412;-44
2021/11/20 03:42:52;;;;;;;20.02;9.80;;;;;;;3.69;98.16;96878.91;4989278;28;20042;-47
2021/11/20 03:45:22;;;;;;;23.20;10.40;;;;;;;3.63;98.70;96881.84;4974829;28;20107;-49
2021/11/20 03:47:50;;;;;;;24.00;10.50;;;;;;;3.68;98.83;96866.63;4973910;28;20084;-45
2021/11/20 03:50:19;;;;;;;23.33;9.80;;;;;;;3.68;98.99;96874.63;4987089;28;20109;-43
2021/11/20 03:52:47;;;;;;;20.25;9.88;;;;;;;3.99;98.47;96874.66;4979234;28;20357;-45
2021/11/20 03:55:19;;;;;;;21.73;10.10;;;;;;;4.02;97.00;96874.13;4986897;28;20042;-43
2021/11/20 03:57:46;;;;;;;22.65;10.02;;;;;;;4.11;97.02;96877.09;4982195;28;20054;-48
2021/11/20 04:00:17;;;;;;;23.90;10.77;;;;;;;4.01;97.66;96867.19;4990267;28;20476;-44
2021/11/20 04:02:47;;;;;;;22.10;10.25;;;;;;;3.87;97.43;96872.28;4975737;28;20102;-46
2021/11/20 04:05:19;;;;;;;20.15;9.90;;;;;;;3.72;98.29;96867.69;4971022;28;20419;-48
2021/11/20 04:07:47;;;;;;;22.70;10.27;;;;;;;3.83;98.21;96865.00;4999350;28;20070;-47
2021/11/20 04:10:15;;;;;;;22.23;9.77;;;;;;;3.98;98.31;96867.72;4984496;28;20514;-43
2021/11/20 04:12:42;;;;;;;28.20;11.27;;;;;;;4.34;95.80;96860.47;4982126;28;20050;-45
2021/11/20 04:15:13;;;;;;;24.08;9.98;;;;;;;4.17;96.07;96859.97;4977221;28;20050;-43
2021/11/20 04:17:40;;;;;;;23.20;10.23;;;;;;;4.07;96.78;96862.66;4990324;28;20047;-45
2021/11/20 04:20:11;;;;;;;23.02;10.68;;;;;;;4.08;97.55;96851.66;4976524;28;20089;-45
2021/11/20 04:22:38;;;;;;;23.30;10.75;;;;;;;4.53;95.60;96851.91;4994511;28;20042;-51
2021/11/20 04:25:08;;;;;;;24.02;10.77;;;;;;;4.26;96.38;96853.00;4991012;28;20050;-45
2021/11/20 04:27:44;;;;;;;22.27;9.63;;;;;;;4.09;97.05;96855.13;4990781;28;20043;-44
2021/11/20 04:30:32;;;;;;;23.60;10.30;;;;;;;4.40;96.54;96847.91;4964204;28;20055;-48
2021/11/20 04:32:59;;;;;;;22.65;10.18;;;;;;;4.25;96.46;96846.03;4984702;28;20046;-44
2021/11/20 04:35:27;;;;;;;23.73;9.75;;;;;;;4.01;97.42;96845.75;4994153;28;20388;-45
2021/11/20 04:37:54;;;;;;;26.48;10.65;;;;;;;4.03;98.09;96850.84;4994125;28;20125;-45
2021/11/20 04:40:23;;;;;;;20.67;9.57;;;;;;;3.92;98.87;96850.03;4990585;28;20051;-48
2021/11/20 04:42:51;;;;;;;21.48;10.45;;;;;;;3.85;99.14;96844.94;4985857;28;20038;-43
2021/11/20 04:45:23;;;;;;;24.85;11.20;;;;;;;3.84;99.40;96846.03;4993497;28;20419;-45
2021/11/20 04:47:50;;;;;;;17.60;9.30;;;;;;;3.98;98.89;96844.41;4992236;28;20060;-48
2021/11/20 04:50:24;;;;;;;19.38;9.93;;;;;;;3.99;98.89;96850.56;4993449;28;20046;-46
2021/11/20 04:52:52;;;;;;;20.30;10.45;;;;;;;4.49;96.66;96845.47;4989720;28;20054;-50
2021/11/20 04:55:19;;;;;;;26.23;10.75;;;;;;;4.23;96.75;96840.16;4976561;28;20138;-47
2021/11/20 04:57:49;;;;;;;22.35;10.77;;;;;;;4.25;97.06;96842.53;4983971;28;20141;-43
2021/11/20 05:00:36;;;;;;;22.52;10.88;;;;;;;3.84;98.68;96839.88;4993371;28;20121;-45
2021/11/20 05:03:07;;;;;;;23.83;11.05;;;;;;;3.59;100.00;96837.97;4990482;28;20038;-48
2021/11/20 05:05:44;;;;;;;21.30;10.90;;;;;;;3.80;100.00;96844.94;4973993;28;20066;-43
2021/11/20 05:08:15;;;;;;;25.45;10.88;;;;;;;3.91;99.50;96851.91;4978714;28;20381;-45
2021/11/20 05:10:43;;;;;;;26.08;11.48;;;;;;;3.93;99.12;96848.97;4993285;28;20061;-46
2021/11/20 05:13:11;;;;;;;23.70;11.25;;;;;;;3.80;99.73;96844.94;4991303;28;20448;-49
2021/11/20 05:15:42;;;;;;;24.67;11.32;;;;;;;3.61;100.00;96841.19;4993309;28;20404;-45
2021/11/20 05:18:10;;;;;;;28.80;12.80;;;;;;;3.82;100.00;96837.44;4991706;28;20547;-43
2021/11/20 05:21:02;;;;;;;25.83;11.40;;;;;;;3.98;99.77;96825.69;4987265;28;20508;-44
2021/11/20 05:23:35;;;;;;;25.70;11.68;;;;;;;3.92;99.53;96832.09;4988203;28;20058;-47
2021/11/20 05:26:06;;;;;;;25.33;11.63;;;;;;;3.81;100.00;96827.03;4993485;28;20050;-44
2021/11/20 05:28:34;;;;;;;27.35;12.13;;;;;;;3.97;100.00;96821.41;4994264;28;20463;-47
2021/11/20 05:31:02;;;;;;;27.02;12.40;;;;;;;3.82;100.00;96826.75;4989322;28;20054;-47
2021/11/20 05:33:51;;;;;;;30.35;12.65;;;;;;;3.98;100.00;96814.97;4988661;28;20058;-45
2021/11/20 05:36:20;;;;;;;29.17;13.13;;;;;;;3.88;100.00;96831.03;4987014;28;20468;-46
2021/11/20 05:38:47;;;;;;;30.25;12.73;;;;;;;3.89;100.00;96821.91;4992407;28;20476;-45
2021/11/20 05:41:15;;;;;;;24.10;11.35;;;;;;;3.81;100.00;96825.16;4988858;28;20052;-46
2021/11/20 05:43:48;;;;;;;24.65;11.73;;;;;;;3.82;100.00;96823.25;4998684;28;20089;-50
2021/11/20 05:46:28;;;;;;;29.95;12.93;;;;;;;3.71;100.00;96825.13;4973675;28;20465;-48
2021/11/20 05:48:56;;;;;;;30.08;13.57;;;;;;;3.71;100.00;96811.75;4979136;28;20412;-49
2021/11/20 05:51:23;;;;;;;27.05;12.15;;;;;;;4.25;99.33;96813.88;4991860;28;20452;-46
2021/11/20 05:53:50;;;;;;;28.85;12.88;;;;;;;4.39;99.09;96814.94;4994263;28;20125;-49
2021/11/20 05:56:18;;;;;;;28.80;12.57;;;;;;;4.38;99.20;96815.19;4972891;28;20073;-51
2021/11/20 05:59:07;;;;;;;28.50;12.80;;;;;;;4.41;99.61;96817.34;4984942;28;20066;-48
2021/11/20 06:01:34;;;;;;;24.30;11.60;;;;;;;4.47;98.19;96810.09;4990606;28;20436;-49
2021/11/20 06:04:01;;;;;;;23.75;12.73;;;;;;;4.61;98.19;96806.56;4980391;28;20093;-47
2021/11/20 06:06:28;;;;;;;27.55;12.10;;;;;;;4.78;96.07;96814.31;4992633;28;20054;-47
2021/11/20 06:08:55;;;;;;;23.98;12.10;;;;;;;4.80;96.47;96804.09;4991677;28;20113;-47
2021/11/20 06:11:23;;;;;;;22.77;11.05;;;;;;;4.71;96.31;96800.38;4992300;28;20074;-45
2021/11/20 06:13:49;;;;;;;24.80;12.20;;;;;;;4.35;97.60;96811.19;4988951;28;20060;-48
2021/11/20 06:16:29;;;;;;;20.77;11.35;;;;;;;4.62;97.32;96807.38;4992289;28;20504;-46
2021/11/20 06:18:58;;;;;;;28.05;12.25;;;;;;;4.63;97.91;96809.00;4991236;28;20034;-45
2021/11/20 06:21:25;;;;;;;26.88;11.77;;;;;;;4.85;96.52;96804.09;4991792;28;20042;-50
2021/11/20 06:23:53;;;;;;;26.67;12.65;;;;;;;4.89;96.68;96807.81;4989652;28;20043;-48
2021/11/20 06:26:21;;;;;;;23.13;11.55;;;;;;;4.71;97.38;96805.72;5018769;23;20050;-43
2021/11/20 06:28:48;;;;;;;22.60;12.30;;;;;;;4.77;96.67;96810.00;5010639;28;20100;-45
2021/11/20 06:31:22;;;;;;;20.88;11.18;;;;;;;4.83;95.69;96803.56;5008886;28;20043;-44
2021/11/20 06:34:09;;;;;;;25.70;11.48;;;;;;;4.90;95.22;96806.75;5000513;28;20053;-43
2021/11/20 06:36:54;;;;;;;25.35;12.40;;;;;;;4.74;96.41;96807.06;4990611;28;20042;-44
2021/11/20 06:39:37;;;;;;;24.35;11.32;;;;;;;4.21;98.29;96812.81;4991814;28;20046;-43
2021/11/20 06:42:06;;;;;;;25.85;13.13;;;;;;;3.80;100.00;96812.81;4991374;28;20042;-43
2021/11/20 06:44:34;;;;;;;22.35;11.63;;;;;;;4.00;100.00;96817.38;5008031;28;20069;-43
2021/11/20 06:47:02;;;;;;;25.42;13.13;;;;;;;4.31;99.19;96817.34;4992722;28;20074;-44
2021/11/20 06:49:30;;;;;;;24.52;12.90;;;;;;;4.22;99.51;96815.25;5006656;28;20046;-43
2021/11/20 06:51:58;;;;;;;26.48;12.63;;;;;;;4.04;100.00;96810.41;4992547;28;20046;-43
2021/11/20 06:54:45;;;;;;;31.65;12.57;;;;;;;3.84;100.00;96813.91;4992835;28;20052;-43
2021/11/20 07:00:30;;;;;;;27.33;12.63;;;;;;;3.87;100.00;96807.22;4981285;28;20105;-43
2021/11/20 07:03:19;;;;;;;24.52;11.75;;;;;;;3.74;100.00;96805.88;4988899;28;20108;-46
2021/11/20 07:05:57;;;;;;;27.13;12.65;;;;;;;3.66;100.00;96806.38;4990599;28;20034;-44
2021/11/20 07:08:26;;;;;;;29.30;13.02;;;;;;;3.81;100.00;96801.06;4971702;28;20061;-43
2021/11/20 07:10:55;;;;;;;26.88;13.30;;;;;;;3.84;100.00;96805.88;4982251;28;20046;-44
2021/11/20 07:13:23;;;;;;;22.02;12.20;;;;;;;3.93;100.00;96809.63;4991785;28;20054;-43
2021/11/20 07:15:51;;;;;;;28.70;12.93;;;;;;;3.99;100.00;96810.41;4991437;28;20050;-43
2021/11/20 07:18:19;;;;;;;23.52;12.23;;;;;;;4.16;100.00;96815.47;4990406;28;20046;-42
2021/11/20 07:21:25;;;;;;;26.05;12.95;;;;;;;4.32;99.94;96814.41;4991607;28;20056;-43
2021/11/20 07:24:14;;;;;;;25.17;13.25;;;;;;;4.41;100.00;96815.47;4988980;28;20081;-43
2021/11/20 07:26:43;;;;;;;32.65;13.73;;;;;;;4.57;99.18;96813.56;4990318;28;20105;-43
2021/11/20 07:29:11;;;;;;;27.13;14.27;;;;;;;4.72;98.28;96812.72;4989445;28;20492;-44
2021/11/20 07:32:07;;;;;;;28.55;13.73;;;;;;;4.74;97.98;96812.44;4991505;28;20058;-45
2021/11/20 07:34:36;;;;;;;26.17;13.02;;;;;;;4.83;98.28;96822.31;4974395;28;20053;-42
2021/11/20 07:37:04;;;;;;;31.88;15.07;;;;;;;4.90;96.95;96809.41;5002685;28;20045;-44
2021/11/20 07:39:33;;;;;;;27.17;14.15;;;;;;;4.98;97.86;96813.44;4987186;28;20050;-44
2021/11/20 07:42:00;;;;;;;28.73;12.15;;;;;;;4.82;97.62;96810.00;5010449;28;20522;-45
2021/11/20 07:44:28;;;;;;;21.73;12.63;;;;;;;5.11;96.80;96817.41;4986866;28;20073;-47
2021/11/20 07:46:59;;;;;;;32.90;13.73;;;;;;;5.14;96.85;96814.97;4985922;28;20050;-49
2021/11/20 07:49:33;;;;;;;25.30;13.05;;;;;;;5.05;97.94;96807.78;4990830;28;20429;-43
2021/11/20 07:52:02;;;;;;;25.23;12.70;;;;;;;5.12;98.14;96811.75;4990341;28;20156;-43
2021/11/20 07:54:30;;;;;;;29.63;13.13;;;;;;;5.33;97.32;96801.72;4987343;28;20404;-46
2021/11/20 07:57:23;;;;;;;31.63;14.60;;;;;;;5.62;95.26;96801.81;4976720;28;20404;-45
2021/11/20 07:59:57;;;;;;;27.95;13.30;;;;;;;5.32;97.06;96799.31;4977557;28;20092;-47
2021/11/20 08:02:46;;;;;;;34.28;14.23;;;;;;;5.20;97.64;96799.66;4976791;28;20042;-45
2021/11/20 08:05:40;;;;;;;31.27;13.43;;;;;;;5.18;98.51;96793.75;4991452;28;20050;-44
2021/11/20 08:08:31;;;;;;;35.20;14.02;;;;;;;5.36;97.16;96787.75;4980678;28;20065;-45
2021/11/20 08:11:08;;;;;;;30.95;14.73;;;;;;;5.45;97.01;96781.78;4999299;28;20573;-45
2021/11/20 08:13:37;;;;;;;28.50;14.55;;;;;;;5.33;96.91;96779.44;4970061;28;20070;-45
2021/11/20 08:16:29;;;;;;;29.48;13.70;;;;;;;5.55;95.50;96771.00;4980026;28;20039;-46
2021/11/20 08:19:24;;;;;;;26.50;13.05;;;;;;;5.72;94.55;96773.28;4991432;28;20438;-45
2021/11/20 08:22:04;;;;;;;29.15;13.50;;;;;;;5.50;95.33;96773.72;4987742;28;20057;-49
2021/11/20 08:24:35;;;;;;;25.45;12.35;;;;;;;5.51;95.28;96776.13;4962714;28;20059;-47
2021/11/20 08:27:07;;;;;;;26.45;12.55;;;;;;;5.49;96.46;96777.47;4971873;28;20121;-45
2021/11/20 08:29:45;;;;;;;24.77;12.60;;;;;;;5.47;96.22;96763.53;4973579;28;20053;-46
2021/11/20 08:32:14;;;;;;;28.42;13.63;;;;;;;5.59;94.96;96764.78;4999789;28;20048;-45
2021/11/20 08:35:16;;;;;;;23.92;12.57;;;;;;;5.49;95.83;96753.31;4970662;28;20068;-48
2021/11/20 08:38:06;;;;;;;22.27;11.88;;;;;;;5.48;96.95;96752.50;4991755;28;21150;-45
2021/11/20 08:40:56;;;;;;;26.17;11.68;;;;;;;5.66;95.18;96752.94;4988315;28;20906;-46
2021/11/20 08:43:28;;;;;;;21.38;12.00;;;;;;;5.57;96.46;96747.38;4979134;28;20050;-45
2021/11/20 08:46:19;;;;;;;21.58;10.98;;;;;;;5.48;96.62;96746.34;4988248;28;20499;-48
2021/11/20 08:48:47;;;;;;;20.90;11.00;;;;;;;5.53;96.55;96736.38;4989290;28;20070;-47
2021/11/20 08:51:18;;;;;;;20.77;10.93;;;;;;;5.58;96.63;96736.34;4989212;28;20047;-45
2021/11/20 08:53:46;;;;;;;23.10;11.60;;;;;;;5.64;96.74;96737.09;4989753;28;20109;-45
2021/11/20 08:56:13;;;;;;;18.38;9.85;;;;;;;5.78;95.77;96732.69;4990491;28;20809;-48
2021/11/20 08:58:44;;;;;;;18.67;10.07;;;;;;;5.74;94.44;96741.59;4991983;28;20050;-45
2021/11/20 09:01:33;;;;;;;17.67;9.95;;;;;;;5.69;95.34;96729.03;4987926;28;20508;-45
2021/11/20 09:04:42;;;;;;;20.00;10.13;;;;;;;5.75;95.08;96733.28;5005111;28;20041;-46
2021/11/20 09:07:16;;;;;;;23.48;10.60;;;;;;;5.74;95.17;96731.66;4986637;28;20395;-47
2021/11/20 09:10:04;;;;;;;17.23;9.82;;;;;;;5.98;93.51;96729.06;5003674;28;20406;-48
2021/11/20 09:12:40;;;;;;;20.08;10.30;;;;;;;5.97;94.33;96729.34;4986875;28;20049;-47
2021/11/20 09:15:21;;;;;;;20.55;10.45;;;;;;;5.96;92.88;96728.53;4969256;28;20035;-47
2021/11/20 09:17:50;;;;;;;19.05;10.68;;;;;;;6.09;93.27;96727.06;4989329;28;20575;-47
2021/11/20 09:20:27;;;;;;;20.30;9.73;;;;;;;6.23;93.08;96733.38;4988032;28;20121;-44
2021/11/20 09:22:54;;;;;;;18.52;9.50;;;;;;;6.31;91.87;96727.38;4992075;28;20052;-47
2021/11/20 09:25:33;;;;;;;17.55;9.10;;;;;;;6.57;91.08;96716.34;4989756;28;20050;-45
2021/11/20 09:28:20;;;;;;;15.70;9.63;;;;;;;6.25;90.50;96708.91;4991075;28;20133;-50
2021/11/20 09:30:51;;;;;;;16.45;9.35;;;;;;;6.36;90.79;96709.59;4989900;28;20050;-44
2021/11/20 09:33:21;;;;;;;17.23;9.68;;;;;;;6.45;91.95;96708.69;4989839;28;20415;-44
2021/11/20 09:35:49;;;;;;;13.68;8.50;;;;;;;6.22;90.56;96704.13;4989365;28;20070;-44
2021/11/20 09:38:36;;;;;;;15.55;8.20;;;;;;;6.40;89.25;96710.63;4994688;28;20160;-46
2021/11/20 09:41:34;;;;;;;16.30;9.13;;;;;;;6.77;87.90;96708.03;4986134;28;20500;-45
2021/11/20 09:44:01;;;;;;;15.55;8.93;;;;;;;6.69;88.33;96708.66;4992294;28;20112;-42
2021/11/20 09:46:37;;;;;;;14.27;8.30;;;;;;;6.68;88.35;96712.44;4976266;28;20050;-45
2021/11/20 09:49:18;;;;;;;14.02;8.50;;;;;;;6.68;89.28;96707.06;4993815;28;20043;-44
2021/11/20 09:51:49;;;;;;;13.75;8.05;;;;;;;6.67;88.43;96704.69;5009659;28;20049;-48
2021/11/20 09:54:23;;;;;;;13.23;7.85;;;;;;;6.55;88.90;96697.00;4998358;28;20034;-47
2021/11/20 09:57:15;;;;;;;16.58;8.75;;;;;;;6.61;89.29;96692.38;4991519;28;20065;-44
2021/11/20 09:59:45;;;;;;;13.10;7.88;;;;;;;6.55;89.37;96692.44;4991185;28;20408;-45
2021/11/20 10:02:20;;;;;;;10.85;6.25;;;;;;;6.54;88.33;96698.09;4990056;28;20581;-46
2021/11/20 10:04:59;;;;;;;8.38;5.55;;;;;;;6.67;88.39;96694.72;4985719;28;20042;-46
2021/11/20 10:07:41;;;;;;;9.75;5.93;;;;;;;6.59;87.61;96697.22;4990490;28;20136;-50
2021/11/20 10:10:32;;;;;;;11.00;6.22;;;;;;;6.83;87.20;96695.31;4988182;28;20141;-45
2021/11/20 10:13:17;;;;;;;11.98;6.68;;;;;;;6.82;88.09;96695.59;4989829;28;20403;-43
2021/11/20 10:15:55;;;;;;;10.45;5.82;;;;;;;6.89;87.18;96696.88;4991923;28;20062;-48
2021/11/20 10:18:48;;;;;;;9.43;5.40;;;;;;;7.11;86.13;96688.19;4979366;28;20050;-47
2021/11/20 10:21:30;;;;;;;4.13;2.50;;;;;;;7.08;84.05;96679.91;4985895;28;20046;-51
2021/11/20 10:24:20;;;;;;;4.40;2.13;;;;;;;6.99;82.09;96672.50;4993932;28;20042;-50
2021/11/20 10:27:23;;;;;;;3.47;2.00;;;;;;;6.77;81.00;96670.38;4979699;28;20515;-47
2021/11/20 10:30:20;;;;;;;2.80;1.40;;;;;;;6.78;80.44;96666.59;4989292;28;20571;-45
2021/11/20 10:32:54;;;;;;;2.80;1.70;;;;;;;6.98;79.94;96652.06;4992988;28;20395;-45
2021/11/20 10:35:28;;;;;;;3.70;1.98;;;;;;;6.98;81.86;96656.63;4991654;28;20041;-47
2021/11/20 10:38:11;;;;;;;2.72;1.80;;;;;;;6.84;81.63;96655.78;4991762;28;20511;-48
2021/11/20 10:40:44;;;;;;;;;;;;;;;6.88;82.36;96646.03;4991907;28;20077;-47
2021/11/20 10:43:23;;;;;;;3.55;2.05;;;;;;;6.72;82.00;96638.16;4988844;28;20036;-47
2021/11/20 10:45:52;;;;;;;3.53;1.98;;;;;;;6.85;82.62;96643.91;4991088;28;20038;-47
2021/11/20 10:48:43;;;;;;;4.10;2.55;;;;;;;7.02;82.93;96636.16;4993132;28;20046;-46
2021/11/20 10:51:10;;;;;;;4.53;2.33;;;;;;;6.94;82.47;96636.78;4988318;28;20046;-47
2021/11/20 10:53:58;;;;;;;3.80;2.30;;;;;;;6.92;82.23;96628.22;4987841;28;20068;-48
2021/11/20 10:56:32;;;;;;;4.50;2.42;;;;;;;7.25;80.59;96610.22;4991235;28;20049;-47
2021/11/20 10:59:19;;;;;;;4.03;2.70;;;;;;;7.13;81.21;96616.06;4990513;28;20052;-45
2021/11/20 11:02:18;;;;;;;5.32;2.67;;;;;;;7.15;81.38;96611.19;4991554;28;20427;-49
2021/11/20 11:05:16;;;;;;;5.22;2.30;;;;;;;7.17;80.22;96598.22;4979306;28;20404;-49
2021/11/20 11:07:55;;;;;;;4.68;2.75;;;;;;;7.33;80.25;96595.28;4992901;28;20050;-46
2021/11/20 11:10:32;;;;;;;4.88;2.67;;;;;;;7.18;80.82;96591.78;4991424;28;20069;-47
2021/11/20 11:13:23;;;;;;;6.18;2.72;;;;;;;7.16;80.95;96587.78;4984283;28;20129;-46
2021/11/20 11:16:17;;;;;;;5.05;2.80;;;;;;;7.32;82.53;96588.31;4982417;28;20041;-49
2021/11/20 11:18:49;;;;;;;3.35;2.40;;;;;;;7.23;80.90;96591.66;4991254;28;20046;-47
2021/11/20 11:21:15;;;;;;;3.67;2.20;;;;;;;7.43;80.50;96590.53;4991233;28;20129;-49
2021/11/20 11:23:45;;;;;;;4.03;2.67;;;;;;;7.46;80.56;96589.16;4989158;28;20049;-46
2021/11/20 11:26:16;;;;;;;3.80;2.40;;;;;;;7.29;80.34;96586.22;4991416;28;20065;-47
2021/11/20 11:28:59;;;;;;;2.88;2.10;;;;;;;6.88;80.95;96571.50;4991737;28;20481;-48
2021/11/20 11:31:36;;;;;;;4.85;2.42;;;;;;;6.89;81.10;96572.28;4987120;28;20174;-46
2021/11/20 11:34:16;;;;;;;3.97;2.58;;;;;;;6.88;81.85;96554.56;4990931;28;20043;-45
2021/11/20 11:36:49;;;;;;;4.63;2.53;;;;;;;7.02;81.04;96553.53;4990643;28;20046;-49
2021/11/20 11:39:32;;;;;;;4.80;3.05;;;;;;;7.34;79.91;96551.91;4991988;28;20081;-44
2021/11/20 11:42:11;;;;;;;4.45;2.80;;;;;;;7.28;79.98;96546.91;4990643;28;20061;-45
2021/11/20 11:45:07;;;;;;;6.35;2.55;;;;;;;7.22;79.58;96536.25;4991683;28;20105;-44
2021/11/20 11:47:53;;;;;;;5.00;2.50;;;;;;;7.25;79.92;96538.34;4990784;28;20061;-43
2021/11/20 11:50:57;;;;;;;4.90;3.08;;;;;;;7.25;79.76;96527.59;4992207;28;20053;-44
2021/11/20 11:53:47;;;;;;;5.72;2.60;;;;;;;7.45;79.75;96521.03;4991247;28;20121;-45
2021/11/20 11:56:30;;;;;;;6.75;3.58;;;;;;;7.71;79.65;96517.88;4960724;28;20054;-43
2021/11/20 11:59:32;;;;;;;4.03;2.80;;;;;;;7.75;78.12;96512.69;4984479;28;20050;-44
2021/11/20 12:02:01;;;;;;;4.85;3.20;;;;;;;7.77;78.15;96516.69;4982216;28;20050;-44
2021/11/20 12:04:29;;;;;;;5.53;3.13;;;;;;;7.70;78.23;96511.69;4985881;28;20443;-43
2021/11/20 12:07:24;;;;;;;4.35;3.10;;;;;;;7.44;79.60;96491.72;4989273;28;20587;-44
2021/11/20 12:10:36;;;;;;;6.75;3.30;;;;;;;7.48;79.05;96487.34;4991113;28;20042;-48